Portada
METAR-TAF:

METAR-TAF

Aeroports :

Aeroport de Berlín-Tegel

Berlín, Alemanya

latitud: 52-34N, longitud: 013-19E, altitud: 37 m

Observació

L'informe es va fer fa 30 minuts, a les 20:50 UTC
Vent 4 kt del Est/Nord-Est, variant entre Nord/Nord-Est i Est
Temperatura 15°C
Humitat 55%
Pressió 1034 hPa
Visibilitat 10 km o més
sense núvols per sota de 1500 mi sense presència de cumulonimbus.

METAR: EDDT 262050Z 06004KT 020V100 CAVOK 15/06 Q1034 NOSIG

Hora: 23:20 (21:20 UTC)

Pronòstic

L'informe es va fer fa 4 hores i 20 minuts, a les 17:00 UTC
Pronòstic vàlid del 26 a les 18 UTC al 27 a les 18 UTC
Vent 5 kt del Nord-Est
Visibilitat 10 km o més
sense núvols per sota de 1500 mi sense presència de cumulonimbus.
Evolucionant progressivament
l' 26 a les 18 UTC al 26 a les 20 UTC
Vent 3 kt amb direcció variable
Evolucionant progressivament
l' 27 a les 09 UTC al 27 a les 12 UTC
Vent 7 kt del Oest/Nord-Oest

TAF: EDDT 261700Z 2618/2718 04005KT CAVOK BECMG 2618/2620 VRB03KT BECMG 2709/2712 29007KT

Observacions i pronòstics meteorològics de més de 4000 aeroports (METAR i TAF).

Les estacions disponibles són els punts grocs i vermells al mapa.

Posi el ratolí al punt desitjat per veure el nom de l'estació.

Feu clic per veure les observacions i els pronòstics meteorològics.

Per canviar el mapa: feu clic els botons verds amb una creu de color negre per apropar; al botó verd amb un guió per allunyar la imatge; o en les fletxes verdes per a mapes adjacents.


METAR-TAF: